• Join FlightAware (Why Join?)
  • Login
  • US Flag 
03:26AM EDT


 

Airport Tracker/Info


-or-


 

Live Flight TrackerFlight Track Log ✈ SWA22 ✈ 15-Apr-2013 ✈ KHRL - KHOU

Flight Track Log - Related Links

Times and Time Zones

All times are in EDT time to prevent confusion due to time zone crossing. See the SWA22 flight status page for this flight to view local times or setup timezone preferences in your user account.

Time Position Orientation Groundspeed Altitude Reporting Facility
EDT Latitude Longitude Course Direction KTS MPH feet Rate Location/Type
11:10AM 26.2153 -97.6478 24° Northeast 126 145 700  Level Houston Center
11:11AM 26.2792 -97.6158 24° Northeast 244 281 3,600 2,340 Climbing Houston Center
11:12AM 26.3031 -97.6125 North 259 298 4,700 3,720 Climbing Houston Center
11:12AM 26.3581 -97.6053 North 284 327 7,400 3,720 Climbing Houston Center
11:13AM 26.3836 -97.6025 North 287 330 8,600 3,180 Climbing Houston Center
11:14AM 26.4747 -97.5933 North 303 349 11,600 2,820 Climbing Houston Center
11:15AM 26.5714 -97.5833 North 346 398 14,500 2,220 Climbing Houston Center
11:16AM 26.6786 -97.5719 North 409 471 16,300 2,460 Climbing Houston Center
11:17AM 26.7800 -97.5203 24° Northeast 388 447 19,600 2,700 Climbing Houston Center
11:18AM 26.8911 -97.4586 26° Northeast 413 475 21,900 2,280 Climbing Houston Center
11:19AM 27.0056 -97.3928 27° Northeast 426 490 24,400 1,920 Climbing Houston Center
11:20AM 27.0594 -97.3011 57° Northeast 436 502 25,900 1,560 Climbing Houston Center
11:21AM 27.0764 -97.1294 84° East 460 529 27,700 1,680 Climbing Houston Center
11:22AM 27.1233 -96.9961 68° East 488 562 29,400 1,500 Climbing Houston Center
11:23AM 27.2425 -96.9428 22° Northeast 465 535 30,900 1,800 Climbing Houston Center
11:24AM 27.3639 -96.8925 20° North 468 539 33,200 1,920 Climbing Houston Center
11:25AM 27.5025 -96.8300 22° Northeast 460 529 34,900 840 Climbing Houston Center
11:26AM 27.6228 -96.7786 21° North 460 529 35,000  Climbing Houston Center
11:27AM 27.7447 -96.7267 21° North 466 536 35,000  Level Houston Center
11:28AM 27.8628 -96.6728 22° Northeast 461 531 35,000  Level Houston Center
11:29AM 27.9819 -96.6200 21° North 460 529 35,000  Level Houston Center
11:30AM 28.1028 -96.5672 21° North 464 534 35,000 -180 Level Houston Center
11:31AM 28.2447 -96.5050 21° North 457 526 34,700 -720 Descending Houston Center
11:32AM 28.3594 -96.4567 20° North 447 514 33,600 -2,100 Descending Houston Center
11:33AM 28.4764 -96.4086 20° North 445 512 30,400 -3,000 Descending Houston Center
11:34AM 28.6028 -96.3494 22° Northeast 474 545 27,400 -2,760 Descending Houston Center
11:35AM 28.7222 -96.2956 22° Northeast 471 542 24,700 -2,820 Descending Houston Center
11:36AM 28.8575 -96.2353 21° North 445 512 21,600 -2,760 Descending Houston Center
11:37AM 28.9661 -96.1872 21° North 427 491 19,100 -2,460 Descending Houston Center
11:38AM 29.0706 -96.1403 21° North 409 471 16,600 -2,520 Descending Houston Center
11:39AM 29.1803 -96.0928 21° North 392 451 14,000 -2,160 Descending Houston Center
11:41AM 29.2703 -96.0514 22° Northeast 382 440 12,200 -1,260 Descending Houston Center
11:42AM 29.3483 -95.9731 41° Northeast 307 353 11,500 -960 Descending Houston Center
11:43AM 29.4044 -95.8947 51° Northeast 321 369 10,300 -1,260 Descending Houston Center
11:44AM 29.4567 -95.8194 51° Northeast 297 342 9,000 -1,500 Descending Houston Center
11:45AM 29.5128 -95.7433 50° Northeast 297 342 7,300 -1,560 Descending Houston Center
11:46AM 29.5617 -95.6800 48° Northeast 286 329 6,000 -660 Descending Houston Center
11:47AM 29.6203 -95.6058 48° Northeast 286 329 6,000 -720 Level Houston Center
11:48AM 29.6750 -95.5392 47° Northeast 284 327 4,500 -1,080 Descending Houston Center
11:49AM 29.7267 -95.4825 44° Northeast 226 260 3,900 -1,080 Descending Houston Center
11:50AM 29.7544 -95.4192 63° Northeast 224 258 2,400 -1,140 Descending Houston Center
11:51AM 29.7158 -95.3636 129° Southeast 185 213 1,500 -660 Descending Houston Center
11:52AM 29.6850 -95.3264 134° Southeast 154 177 1,100 -600 Descending Houston Center
11:53AM 29.6617 -95.3003 136° Southeast 124 143 400 -780 Descending Houston Center
11:55AM 29.6454 -95.2789 115° Southeast  Level Estimated